Terminal Aerodrome Forecast
Issued by NWS

Home | Current Version | Previous Version | Text Only | Print | Product List | Glossary On
Versions: 1 2 3 4 5 6 7 8 9 10 11 12
000
FTUS42 TJSJ 041735
TAFISX
TAF
TISX 041735Z 0418/0518 10015G22KT P6SM FEW025
     FM042230 08010KT P6SM FEW030
     FM051330 10015G21KT P6SM FEW030=

USA.gov is the U.S. government's official web portal to all federal, state and local government web resources and services.